Flight Information

DEPARTURE
APPLE VALLEY, CA
Elevation:
3061
Runways:
18/36 - 6498x150 - ASPH-G
8/26 - 4099x60 - ASPH-G
CTAF:
122.800
DESTINATION
BAKERSFIELD, CA
Elevation:
509
TPA:
1509 (est.)
Runways:
12L/30R - 10849x150 - ASPH-G
12R/30L - 7700x100 - ASPH-E
Active PE Arriving:
30L - 30R
Active PE Approach:
ILS RUNWAY 3 0 RIGHT AND R NAVV RUNWAY 3 0 LEFT APPROACH IN USE.
Current PE ATIS:
R
Altimeter:
29.88
Remarks:
ATIS:
118.6 661-399-9425
Tower:
BAKERSFIELD TOWER 118.1
Ground:
121.7


105.4 NM300° True-14° Var285° HDG

Flight Plan:
(click to file on line)

1. Type
2. Aircraft Identification
3. Aircraft Type / Special Equipment
4. True Airspeed
kts
5. Departure Airport
(ICAO code)
6. Arriving Airport
(ICAO code)
7. Cruising Altitude
ft
8. Alternate Airport
(ICAO code)
9. Route of Flight
10. Remarks


00:00:00 Departure ATIS: Destination ATIS:

Clearance Limit:
Route:
Altitude: Expect in minutes
Frequency:
Transponder: (7500 Hijack / 7600 Lost Comms / 7700 Emergency)


KVCV 032345Z AUTO 00000KT 10SM CLR 40/04 A2997 RMK DA6300
Time: 2021-08-03T23:45:00Z
1628034656
Winds: calm
Visibility: 10.0 sm
Clouds (AGL): CLR
Temperature: 40.0 C
Dew Point: 4.0 C
Pressure: 29.970472 in Hgbr

KBFL 032254Z 33010G16KT 7SM FEW110 38/06 A2988 RMK AO2 SLP110 T03780061
Time: 2021-08-03T22:54:00Z
1628034656
Winds: 330 @ 10 kts
Gusting:16 kts
Visibility: 7.0 sm
Clouds (AGL): FEW 11000
Temperature: 37.8 C
Dew Point: 6.1 C
Pressure: 29.878937 in Hgbr


Notes:

Data extracted from FAA Digital Chart Supplement. Effective: 0901Z Thursday, JUN 17, 2021 to 0901Z Thursday, AUG 12, 2021
Current ATIS data is provided courtisy of PilotEdge.